createdAt,value
2022-12-12T00:02:23.818Z,1002.018
2022-12-12T00:07:26.235Z,1002.071
2022-12-12T00:17:58.858Z,1001.818
2022-12-12T00:23:01.146Z,1001.674
2022-12-12T00:28:03.807Z,1001.736
2022-12-12T00:33:06.438Z,1001.795
2022-12-12T00:38:09.158Z,1001.862
2022-12-12T00:43:11.486Z,1001.893
2022-12-12T00:48:14.153Z,1001.789
2022-12-12T00:53:16.672Z,1001.754
2022-12-12T00:58:19.372Z,1001.762
2022-12-12T01:03:22.249Z,1001.815
2022-12-12T01:08:25.037Z,1001.916
2022-12-12T01:13:27.599Z,1001.977
2022-12-12T01:18:30.179Z,1002.008
2022-12-12T01:23:32.427Z,1001.957
2022-12-12T01:28:35.500Z,1001.971
2022-12-12T01:33:38.187Z,1001.992
2022-12-12T01:38:43.778Z,1001.98
2022-12-12T01:43:49.896Z,1002.067
2022-12-12T01:54:23.437Z,1002.171
2022-12-12T01:59:26.407Z,1002.08
2022-12-12T02:04:29.723Z,1002.049
2022-12-12T02:09:38.048Z,1002.003
2022-12-12T02:14:41.481Z,1001.907
2022-12-12T02:19:44.853Z,1001.728
2022-12-12T02:24:50.808Z,1001.785
2022-12-12T02:29:54.238Z,1001.878
2022-12-12T02:34:57.419Z,1001.944
2022-12-12T02:40:02.073Z,1002.021
2022-12-12T02:45:05.315Z,1002.029
2022-12-12T02:50:08.865Z,1002.011
2022-12-12T02:55:11.871Z,1002.054
2022-12-12T03:00:14.815Z,1002.008
2022-12-12T03:05:26.654Z,1002.01
2022-12-12T03:10:33.403Z,1001.954
2022-12-12T03:15:39.597Z,1001.949
2022-12-12T03:20:42.154Z,1002.05
2022-12-12T03:25:44.751Z,1002.08
2022-12-12T03:30:48.375Z,1002.045
2022-12-12T03:35:51.838Z,1002.088
2022-12-12T03:40:55.071Z,1002.111
2022-12-12T03:46:02.515Z,1002.058
2022-12-12T03:51:08.788Z,1002.028
2022-12-12T03:56:12.309Z,1002.09
2022-12-12T04:01:16.527Z,1002.091
2022-12-12T04:06:20.500Z,1002.166
2022-12-12T04:11:23.799Z,1002.108
2022-12-12T04:21:58.590Z,1002.047
2022-12-12T04:27:27.413Z,1002.066
2022-12-12T04:32:36.986Z,1002.014
2022-12-12T04:37:39.770Z,1001.98
2022-12-12T04:42:43.130Z,1002.011
2022-12-12T04:47:46.342Z,1002.012
2022-12-12T04:52:49.411Z,1002.063
2022-12-12T04:57:53.256Z,1002.065
2022-12-12T05:02:56.281Z,1002.17
2022-12-12T05:13:29.609Z,1002.239
2022-12-12T05:18:32.547Z,1002.199
2022-12-12T05:23:35.662Z,1002.241
2022-12-12T05:28:39.026Z,1002.246
2022-12-12T05:39:45.447Z,1002.255
2022-12-12T05:44:48.735Z,1002.226
2022-12-12T05:49:55.212Z,1002.247
2022-12-12T05:54:58.566Z,1002.311
2022-12-12T06:00:01.633Z,1002.31
2022-12-12T06:10:13.156Z,1002.325
2022-12-12T06:15:16.630Z,1002.333
2022-12-12T06:20:19.843Z,1002.416
2022-12-12T06:25:23.178Z,1002.423
2022-12-12T06:30:26.311Z,1002.492
2022-12-12T06:40:33.019Z,1002.585
2022-12-12T06:45:35.703Z,1002.586
2022-12-12T06:50:38.352Z,1002.658
2022-12-12T06:55:41.387Z,1002.725
2022-12-12T07:00:44.620Z,1002.754
2022-12-12T07:05:47.817Z,1002.76
2022-12-12T07:10:51.086Z,1002.779
2022-12-12T07:15:54.496Z,1002.778
2022-12-12T07:20:57.686Z,1002.847
2022-12-12T07:26:00.914Z,1002.903
2022-12-12T07:31:04.280Z,1002.903
2022-12-12T07:36:07.465Z,1002.936
2022-12-12T07:41:10.597Z,1002.961
2022-12-12T07:46:14.036Z,1003.043
2022-12-12T07:51:19.705Z,1003.088
2022-12-12T07:56:25.138Z,1003.072
2022-12-12T08:01:28.692Z,1003.172
2022-12-12T08:06:31.773Z,1003.155
2022-12-12T08:17:05.358Z,1003.312
2022-12-12T08:27:38.619Z,1003.42
2022-12-12T08:32:45.795Z,1003.398
2022-12-12T08:43:19.496Z,1003.46
2022-12-12T08:48:22.736Z,1003.567
2022-12-12T08:53:26.078Z,1003.588
2022-12-12T08:58:30.257Z,1003.684
2022-12-12T09:03:33.689Z,1003.739
2022-12-12T09:08:36.787Z,1003.755
2022-12-12T09:13:43.287Z,1003.907
2022-12-12T09:18:49.222Z,1003.94
2022-12-12T09:23:49.726Z,1003.977
2022-12-12T09:28:53.017Z,1003.98
2022-12-12T09:33:56.496Z,1004.005
2022-12-12T09:38:59.821Z,1003.928
2022-12-12T09:44:02.771Z,1003.921
2022-12-12T09:49:06.045Z,1003.954
2022-12-12T09:54:09.575Z,1003.907
2022-12-12T09:59:12.000Z,1003.92
2022-12-12T10:04:15.357Z,1003.851
2022-12-12T10:09:18.912Z,1003.908
2022-12-12T10:14:22.082Z,1003.927
2022-12-12T10:19:25.619Z,1004.056
2022-12-12T10:24:28.679Z,1004.065
2022-12-12T10:29:34.466Z,1004.037
2022-12-12T10:34:35.491Z,1004.067
2022-12-12T10:39:38.592Z,1004.064
2022-12-12T10:44:46.977Z,1004.015
2022-12-12T10:49:45.534Z,1003.963
2022-12-12T10:54:48.986Z,1004.019
2022-12-12T11:04:55.823Z,1004.096
2022-12-12T11:10:02.777Z,1004.025
2022-12-12T11:20:08.848Z,1003.967
2022-12-12T11:25:12.413Z,1004.025
2022-12-12T11:30:15.338Z,1003.933
2022-12-12T11:35:18.906Z,1003.93
2022-12-12T11:45:27.797Z,1004.002
2022-12-12T11:50:30.893Z,1004.038
2022-12-12T11:55:34.075Z,1004.122
2022-12-12T12:06:07.254Z,1004.235
2022-12-12T12:11:17.611Z,1004.264
2022-12-12T12:16:20.999Z,1004.292
2022-12-12T12:21:24.281Z,1004.24
2022-12-12T12:26:27.677Z,1004.099
2022-12-12T12:31:30.802Z,1004.035
2022-12-12T12:36:34.225Z,1004.086
2022-12-12T12:41:37.504Z,1004.013
2022-12-12T12:46:40.819Z,1004.058
2022-12-12T12:51:48.588Z,1004.094
2022-12-12T12:56:47.360Z,1004.046
2022-12-12T13:01:50.698Z,1004.064
2022-12-12T13:06:58.150Z,1004.082
2022-12-12T13:12:01.443Z,1003.998
2022-12-12T13:17:05.016Z,1004.066
2022-12-12T13:22:08.583Z,1003.992
2022-12-12T13:27:11.751Z,1004.069
2022-12-12T13:32:15.142Z,1004.107
2022-12-12T13:37:18.433Z,1004.127
2022-12-12T13:42:21.940Z,1004.118
2022-12-12T13:47:25.222Z,1004.19
2022-12-12T13:52:31.396Z,1004.292
2022-12-12T13:57:37.880Z,1004.333
2022-12-12T14:02:40.710Z,1004.369
2022-12-12T14:07:44.119Z,1004.379
2022-12-12T14:12:47.517Z,1004.362
2022-12-12T14:17:50.873Z,1004.353
2022-12-12T14:22:55.385Z,1004.375
2022-12-12T14:27:58.713Z,1004.405
2022-12-12T14:33:02.111Z,1004.497
2022-12-12T14:38:10.595Z,1004.491
2022-12-12T14:43:16.309Z,1004.492
2022-12-12T14:48:17.703Z,1004.451
2022-12-12T14:53:21.220Z,1004.553
2022-12-12T14:58:24.171Z,1004.634
2022-12-12T15:03:27.891Z,1004.665
2022-12-12T15:08:31.312Z,1004.715
2022-12-12T15:18:37.655Z,1004.713
2022-12-12T15:23:40.926Z,1004.724
2022-12-12T15:28:44.049Z,1004.733
2022-12-12T15:33:47.179Z,1004.694
2022-12-12T15:38:50.504Z,1004.746
2022-12-12T15:43:53.903Z,1004.794
2022-12-12T15:48:57.031Z,1004.779
2022-12-12T15:54:00.458Z,1004.724
2022-12-12T15:59:03.477Z,1004.74
2022-12-12T16:04:06.981Z,1004.83
2022-12-12T16:09:10.526Z,1004.812
2022-12-12T16:14:15.759Z,1004.833
2022-12-12T16:19:19.992Z,1004.853
2022-12-12T16:24:23.659Z,1004.862
2022-12-12T16:29:26.974Z,1004.928
2022-12-12T16:34:30.149Z,1005.076
2022-12-12T16:39:33.458Z,1005.072
2022-12-12T16:44:37.212Z,1004.986
2022-12-12T16:49:46.087Z,1005.07
2022-12-12T16:54:53.439Z,1005.113
2022-12-12T16:59:52.702Z,1005.1
2022-12-12T17:04:55.996Z,1005.084
2022-12-12T17:09:59.513Z,1005.07
2022-12-12T17:15:09.319Z,1005.054
2022-12-12T17:20:13.145Z,1005.139
2022-12-12T17:25:16.165Z,1005.213
2022-12-12T17:30:19.419Z,1005.242
2022-12-12T17:40:58.415Z,1005.307
2022-12-12T17:46:01.757Z,1005.207
2022-12-12T18:02:10.319Z,1005.15
2022-12-12T18:12:45.595Z,1005.138
2022-12-12T18:17:48.656Z,1005.25
2022-12-12T18:28:22.399Z,1005.327
2022-12-12T18:33:25.819Z,1005.248
2022-12-12T18:38:29.271Z,1005.273
2022-12-12T18:43:32.584Z,1005.287
2022-12-12T18:48:37.719Z,1005.296
2022-12-12T18:58:47.579Z,1005.39
2022-12-12T19:03:50.711Z,1005.45
2022-12-12T19:08:54.118Z,1005.41
2022-12-12T19:14:01.470Z,1005.535
2022-12-12T19:24:35.318Z,1005.516
2022-12-12T19:29:38.290Z,1005.509
2022-12-12T19:34:50.463Z,1005.467
2022-12-12T19:39:54.000Z,1005.475
2022-12-12T19:44:56.635Z,1005.551
2022-12-12T19:50:02.762Z,1005.586
2022-12-12T19:55:05.564Z,1005.624
2022-12-12T20:00:08.697Z,1005.642
2022-12-12T20:05:11.366Z,1005.694
2022-12-12T20:10:14.297Z,1005.615
2022-12-12T20:15:16.638Z,1005.68
2022-12-12T20:20:19.329Z,1005.631
2022-12-12T20:25:21.903Z,1005.686
2022-12-12T20:35:33.376Z,1005.754
2022-12-12T20:40:36.045Z,1005.727
2022-12-12T20:45:38.911Z,1005.761
2022-12-12T20:50:41.534Z,1005.75
2022-12-12T20:55:44.386Z,1005.807
2022-12-12T21:00:53.037Z,1005.828
2022-12-12T21:05:56.169Z,1005.81
2022-12-12T21:10:58.678Z,1005.816
2022-12-12T21:16:01.206Z,1005.833
2022-12-12T21:21:03.863Z,1005.82
2022-12-12T21:26:06.599Z,1005.825
2022-12-12T21:31:09.274Z,1005.802
2022-12-12T21:36:11.886Z,1005.798
2022-12-12T21:41:14.366Z,1005.687
2022-12-12T21:46:17.072Z,1005.697
2022-12-12T21:51:19.679Z,1005.698
2022-12-12T21:56:22.318Z,1005.772
2022-12-12T22:01:25.167Z,1005.781
2022-12-12T22:06:27.681Z,1005.813
2022-12-12T22:11:33.906Z,1005.75
2022-12-12T22:16:32.939Z,1005.767
2022-12-12T22:21:39.477Z,1005.809
2022-12-12T22:26:42.427Z,1005.776
2022-12-12T22:31:45.057Z,1005.773
2022-12-12T22:36:55.568Z,1005.723
2022-12-12T22:41:58.413Z,1005.71
2022-12-12T22:47:00.821Z,1005.707
2022-12-12T22:52:03.754Z,1005.775
2022-12-12T22:57:06.326Z,1005.79
2022-12-12T23:02:08.802Z,1005.833
2022-12-12T23:07:12.144Z,1005.881
2022-12-12T23:12:14.810Z,1005.855
2022-12-12T23:23:29.369Z,1005.855
2022-12-12T23:28:31.859Z,1005.778
2022-12-12T23:33:34.696Z,1005.786
2022-12-12T23:38:41.414Z,1005.757
2022-12-12T23:43:44.134Z,1005.781
2022-12-12T23:48:46.401Z,1005.722
2022-12-12T23:53:49.018Z,1005.704
2022-12-12T23:58:51.814Z,1005.675
